Airfield :
LOGIN :

Register | Disclaimer

   EN    FR    IT 

 










Legend :    VFR   Marginal VFR   IFR   Intensive IFR   Very Intensive IFR
Visi :
Ceiling :
>= 8 km
>= 3000ft
5 to 8 km
1000 to 3000 ft
1500m to 5 km
500 to 1000 ft
800 to 1500m
200 to 500 ft
< 800m
< 200 ft
Symbols :   Thunderstorms  Fog  Heavy snow  Heavy precipitations  Wind > 20 kt
SIGMETs :     Misc.  Thunderstorms  Icing  Turbulence  Mountain Waves  Volcanic Ashes







- Airport Elevation : 425 ft
- IATA code : DTM


EDLW - Dortmund

CURRENT METAR :
  • 172020Z 26007KT 9999 FEW008 BKN010 BKN014 01/00 Q1008

EXPIRED METARs :
  • 171950Z 26008KT 230V290 9999 SCT005 01/00 Q1007
  • 171920Z 26009KT 9999 -RASN SCT005 BKN032 BKN040 01/00 Q1007
  • 171850Z 27010KT 240V320 9999 -RA BKN012 BKN040 02/00 Q1006
  • 171820Z 26010KT 230V310 9999 SCT014 BKN024 02/00 Q1006
  • 171750Z 26011KT 9999 SCT014 OVC047 02/00 Q1005

TAF TAF EDLW
Valid from the 17 at 18:00 until the 18 at 18:00 UTC


171700Z 1718/1818 26010KT 9999 BKN015
PROB30
TEMPO 1718/1722 4000 SHSN BKN009CB
TEMPO 1722/1809 BKN009
BECMG 1803/1806 21005KT
No reported NOTAMs for that airfield.



MET'MAP, your aeronautical weather chart ! - Copyright ORBIFLY December 2007 - Disclaimer

ORBIFLY MET'MAP TEAM :

Programming & Development : Alexandra Zaïnal
Concept & Development : Baudouin d'Aumeries
Co-Development & Prog : Marc-Olivier Méhu
Technical & hardware support : Manuel Goepfert

Contact : metmap@orbifly.com




SOURCES & CREDITS :

   NOAA